Time;durP1;ratioP1;P1;durP2;ratioP2;P2;SDS_P1;SDS_P2;PMS_P1;PMS_P2;Temp;Humidity;BMP_temperature;BMP_pressure;BME280_temperature;BME280_humidity;BME280_pressure;Samples;Min_cycle;Max_cycle;Signal;HPM_P1;HPM_P2
2022/03/04 10:23:22;;;;;;;;;75.25;54.25;;;;;10.60;67.17;101398.81;5067889;28;45293;-69
2022/03/04 10:25:53;;;;;;;;;80.00;59.00;;;;;10.98;66.96;101414.09;5050095;28;45399;-70
2022/03/04 10:28:23;;;;;;;;;69.25;54.25;;;;;11.20;66.29;101418.75;5050836;28;45514;-70
2022/03/04 10:30:50;;;;;;;;;77.00;58.50;;;;;11.37;65.89;101405.78;5045310;28;45829;-69
2022/03/04 10:33:20;;;;;;;;;75.75;57.50;;;;;11.61;65.04;101414.75;5049979;27;46466;-70
2022/03/04 10:35:50;;;;;;;;;67.25;54.75;;;;;11.80;65.04;101418.41;5050306;28;45454;-68
2022/03/04 10:38:35;;;;;;;;;73.00;55.75;;;;;11.75;63.87;101386.00;5049878;28;45494;-70
2022/03/04 10:41:20;;;;;;;;;76.00;58.25;;;;;12.02;63.66;101407.22;5050427;28;45440;-73
2022/03/04 10:43:49;;;;;;;;;77.75;61.25;;;;;12.18;63.46;101420.44;5050123;28;45375;-73
2022/03/04 10:46:15;;;;;;;;;75.00;60.00;;;;;12.26;63.42;101424.88;5049417;28;45553;-71
2022/03/04 10:48:51;;;;;;;;;71.25;55.50;;;;;12.38;63.27;101421.44;5050256;28;45495;-71
2022/03/04 10:51:33;;;;;;;;;63.25;53.50;;;;;12.52;62.88;101422.38;5033206;28;46127;-67
2022/03/04 10:54:20;;;;;;;;;77.25;54.75;;;;;12.52;62.32;101401.34;5035337;28;46210;-71
2022/03/04 10:56:55;;;;;;;;;75.00;56.75;;;;;12.59;61.66;101394.38;5064807;28;45436;-73
2022/03/04 10:59:22;;;;;;;;;76.00;57.75;;;;;12.79;61.16;101425.13;5048750;28;45485;-70
2022/03/04 11:02:00;;;;;;;;;70.00;55.75;;;;;12.81;60.90;101416.38;5052601;28;45366;-73
2022/03/04 11:04:26;;;;;;;;;73.25;52.25;;;;;12.86;60.70;101417.28;5051675;28;45766;-72
2022/03/04 11:06:51;;;;;;;;;66.75;51.00;;;;;12.92;60.96;101413.78;5048409;28;45384;-70
2022/03/04 11:09:24;;;;;;;;;70.25;51.25;;;;;12.96;60.60;101409.44;5050129;28;45419;-72
2022/03/04 11:11:53;;;;;;;;;69.25;53.75;;;;;13.02;61.09;101406.81;5051455;28;45410;-72
2022/03/04 11:14:22;;;;;;;;;62.50;51.25;;;;;13.17;60.34;101420.00;5049003;28;45607;-73
2022/03/04 11:16:49;;;;;;;;;71.75;51.75;;;;;13.24;60.01;101419.16;5067206;28;45346;-72
2022/03/04 11:19:19;;;;;;;;;74.00;57.25;;;;;13.20;60.12;101396.31;5049186;28;45379;-72
2022/03/04 11:21:46;;;;;;;;;73.75;54.75;;;;;13.33;59.87;101413.03;5058282;28;45755;-73
2022/03/04 11:24:12;;;;;;;;;69.50;54.00;;;;;13.30;59.55;101406.00;5051712;28;47817;-81
2022/03/04 11:26:42;;;;;;;;;70.75;54.50;;;;;13.37;59.17;101422.69;5026010;28;45703;-75
2022/03/04 11:29:32;;;;;;;;;67.25;52.00;;;;;13.42;58.73;101412.19;5045820;28;45511;-76
2022/03/04 11:32:03;;;;;;;;;76.25;56.75;;;;;13.34;58.70;101384.09;5071825;28;45295;-70
2022/03/04 11:35:04;;;;;;;;;81.75;64.00;;;;;13.56;60.76;101413.06;5059233;28;46484;-74
2022/03/04 11:37:30;;;;;;;;;73.25;54.50;;;;;13.33;59.63;101353.38;5052619;28;45463;-69
2022/03/04 11:40:33;;;;;;;;;67.25;52.25;;;;;13.48;58.83;101362.19;5047942;28;45777;-77
2022/03/04 11:42:53;;;;;;;;;68.00;50.50;;;;;13.71;58.64;101385.84;5052524;28;45636;-75
2022/03/04 11:45:30;;;;;;;;;64.25;50.50;;;;;13.71;58.15;101376.19;5056623;28;45850;-68
2022/03/04 11:48:04;;;;;;;;;63.25;50.25;;;;;13.84;58.29;101379.72;5060680;28;45494;-76
2022/03/04 11:51:13;;;;;;;;;67.50;52.50;;;;;13.95;58.26;101391.13;5051275;28;45588;-70
2022/03/04 11:53:39;;;;;;;;;65.00;51.75;;;;;14.01;57.41;101395.47;5048093;28;45789;-75
2022/03/04 11:56:07;;;;;;;;;63.25;50.00;;;;;14.04;57.24;101386.69;5056911;28;46301;-74
2022/03/04 11:59:07;;;;;;;;;64.00;50.50;;;;;14.08;57.48;101391.97;5054767;28;45474;-66
2022/03/04 12:01:37;;;;;;;;;62.75;49.25;;;;;14.13;56.99;101390.19;5001247;28;45573;-77
2022/03/04 12:04:09;;;;;;;;;67.25;53.00;;;;;14.14;56.84;101393.69;5056049;28;45681;-76
2022/03/04 12:06:36;;;;;;;;;67.50;50.50;;;;;14.16;56.68;101392.81;5054968;28;45739;-74
2022/03/04 12:09:27;;;;;;;;;67.25;51.25;;;;;14.18;56.85;101393.69;5055437;28;45545;-76
2022/03/04 12:12:24;;;;;;;;;68.25;51.00;;;;;14.23;56.42;101396.31;5055467;28;45295;-75
2022/03/04 12:14:55;;;;;;;;;65.75;50.00;;;;;14.25;56.52;101397.19;5024885;28;45703;-76
2022/03/04 12:17:21;;;;;;;;;67.25;48.50;;;;;14.15;56.31;101366.50;5058725;28;45500;-72
2022/03/04 12:19:54;;;;;;;;;66.50;52.00;;;;;14.27;56.40;101384.03;5041168;28;45498;-70
2022/03/04 12:22:25;;;;;;;;;67.75;50.50;;;;;14.19;56.01;101368.25;5055658;28;45572;-75
2022/03/04 12:24:56;;;;;;;;;67.50;51.75;;;;;14.28;56.02;101383.13;5037524;28;45510;-69
2022/03/04 12:27:44;;;;;;;;;67.50;52.00;;;;;14.33;55.84;101387.53;5055425;28;46220;-75
2022/03/04 12:30:19;;;;;;;;;66.25;50.50;;;;;14.36;55.93;101390.13;5055559;28;45315;-74
2022/03/04 12:32:48;;;;;;;;;59.50;47.50;;;;;14.33;55.81;101378.72;5055811;28;45652;-69
2022/03/04 12:35:19;;;;;;;;;60.50;48.50;;;;;14.39;55.91;101376.06;5055362;28;45319;-71
2022/03/04 12:37:44;;;;;;;;;62.75;50.00;;;;;14.39;55.56;101374.31;5054587;28;45536;-70
2022/03/04 12:40:12;;;;;;;;;67.00;51.50;;;;;14.34;55.66;101348.88;5055226;28;45354;-73
2022/03/04 12:42:37;;;;;;;;;66.00;49.00;;;;;14.51;55.57;101375.16;5056091;28;45375;-75
2022/03/04 12:45:10;;;;;;;;;62.00;49.50;;;;;14.58;55.28;101374.28;5037185;28;45716;-76
2022/03/04 12:47:36;;;;;;;;;64.25;50.25;;;;;14.52;54.84;101358.44;5055571;28;45513;-76
2022/03/04 12:50:06;;;;;;;;;67.75;52.00;;;;;14.64;54.26;101374.25;5055515;28;45481;-73
2022/03/04 12:52:32;;;;;;;;;67.25;51.75;;;;;14.49;54.45;101348.78;5037509;28;45478;-76
2022/03/04 12:55:06;;;;;;;;;69.75;53.00;;;;;14.66;54.59;101371.59;5058719;28;45381;-76
2022/03/04 12:57:31;;;;;;;;;68.00;52.00;;;;;14.60;54.19;101349.66;5059118;28;45484;-77
2022/03/04 12:59:58;;;;;;;;;65.50;50.00;;;;;14.60;54.19;101335.59;5057886;28;45415;-76
2022/03/04 13:02:33;;;;;;;;;68.75;52.25;;;;;14.84;54.49;101360.97;5038692;28;45522;-73
2022/03/04 13:05:00;;;;;;;;;66.75;49.00;;;;;14.84;54.32;101347.78;5055576;28;45661;-75
2022/03/04 13:07:27;;;;;;;;;68.50;52.00;;;;;14.90;53.73;101358.31;5058532;28;45450;-76
2022/03/04 13:09:55;;;;;;;;;66.00;51.00;;;;;14.92;53.72;101355.63;5059493;28;45553;-77
2022/03/04 13:12:22;;;;;;;;;63.50;51.25;;;;;14.95;53.40;101348.59;5059692;28;45562;-75
2022/03/04 13:14:48;;;;;;;;;63.50;51.00;;;;;14.82;53.43;101323.16;5057628;28;45449;-76
2022/03/04 13:17:15;;;;;;;;;63.75;48.75;;;;;15.00;53.63;101348.56;5036861;28;46389;-76
2022/03/04 13:19:41;;;;;;;;;67.50;50.25;;;;;14.94;52.88;101332.75;5055164;28;45376;-76
2022/03/04 13:22:10;;;;;;;;;60.25;47.75;;;;;15.05;53.05;101341.50;5055386;28;45598;-76
2022/03/04 13:24:40;;;;;;;;;59.25;46.25;;;;;14.99;52.29;101338.88;5057636;28;45336;-71
2022/03/04 13:27:10;;;;;;;;;57.25;44.75;;;;;15.07;52.88;101334.44;5039395;28;46755;-74
2022/03/04 13:29:38;;;;;;;;;66.25;49.75;;;;;15.09;52.95;101337.97;5053688;28;45428;-79
2022/03/04 13:32:28;;;;;;;;;63.00;49.00;;;;;14.83;52.77;101299.44;5059611;28;45314;-74
2022/03/04 13:34:57;;;;;;;;;59.50;46.75;;;;;15.10;52.58;101331.78;5049360;28;45398;-75
2022/03/04 13:37:29;;;;;;;;;60.75;46.00;;;;;15.08;53.96;101336.19;5059078;28;46276;-78
2022/03/04 13:40:01;;;;;;;;;60.25;46.75;;;;;15.11;52.96;101333.50;5060227;28;45529;-76
2022/03/04 13:42:29;;;;;;;;;53.00;43.50;;;;;15.07;53.03;101323.91;5061896;28;45484;-72
2022/03/04 13:44:59;;;;;;;;;54.75;43.25;;;;;15.11;53.46;101330.00;5061595;28;45373;-72
2022/03/04 13:47:36;;;;;;;;;59.50;47.25;;;;;15.10;53.77;101334.41;5060340;28;45516;-74
2022/03/04 13:50:08;;;;;;;;;58.25;45.25;;;;;15.05;53.92;101329.16;5057299;28;45461;-72
2022/03/04 13:52:48;;;;;;;;;57.75;45.50;;;;;14.98;53.96;101314.28;5058279;28;45601;-76
2022/03/04 13:55:15;;;;;;;;;60.25;44.75;;;;;15.04;53.70;101323.88;5061498;28;45345;-77
2022/03/04 13:57:41;;;;;;;;;56.75;43.75;;;;;14.98;53.20;101314.28;5061186;28;46667;-78
2022/03/04 14:00:10;;;;;;;;;59.00;46.00;;;;;14.79;53.26;101278.38;5060601;28;45393;-78
2022/03/04 14:02:46;;;;;;;;;56.25;44.25;;;;;14.95;53.32;101321.31;5057817;28;45585;-78
2022/03/04 14:05:30;;;;;;;;;58.50;45.00;;;;;14.99;53.30;101325.69;5050484;28;45288;-77
2022/03/04 14:08:05;;;;;;;;;64.25;47.75;;;;;14.96;53.70;101337.13;5059927;28;45484;-76
2022/03/04 14:10:33;;;;;;;;;56.25;45.75;;;;;14.93;53.67;101336.31;5059386;28;45267;-76
2022/03/04 14:13:00;;;;;;;;;58.00;45.75;;;;;14.81;54.11;101322.28;5059383;28;46093;-76
2022/03/04 14:15:27;;;;;;;;;56.50;42.00;;;;;14.82;54.23;101326.66;5058285;28;45412;-74
2022/03/04 14:17:59;;;;;;;;;56.50;43.75;;;;;14.77;54.26;101323.19;5055926;28;46211;-75
2022/03/04 14:20:27;;;;;;;;;55.00;44.00;;;;;14.83;53.79;101338.13;5053546;28;45391;-74
2022/03/04 14:22:54;;;;;;;;;55.50;42.75;;;;;14.71;53.75;101315.34;5054554;28;45394;-75
2022/03/04 14:25:21;;;;;;;;;52.50;40.00;;;;;14.79;53.57;101328.47;5070863;28;45472;-75
2022/03/04 14:27:49;;;;;;;;;52.00;41.00;;;;;14.59;54.03;101302.19;5065813;28;45319;-75
2022/03/04 14:30:19;;;;;;;;;54.00;42.00;;;;;14.63;53.46;101318.00;5057817;28;45623;-76
2022/03/04 14:32:45;;;;;;;;;53.50;42.25;;;;;14.54;53.85;101306.63;5035006;28;45697;-70
2022/03/04 14:35:12;;;;;;;;;52.75;39.25;;;;;14.73;53.46;101339.91;5055490;28;45705;-72
2022/03/04 14:37:38;;;;;;;;;48.50;39.25;;;;;14.68;53.61;101328.50;5049823;28;45662;-69
2022/03/04 14:40:07;;;;;;;;;55.00;42.75;;;;;14.71;53.49;101335.53;5053678;28;45470;-77
2022/03/04 14:42:34;;;;;;;;;51.00;40.00;;;;;14.70;53.72;101339.94;5053801;28;45470;-74
2022/03/04 14:44:59;;;;;;;;;53.75;41.25;;;;;14.49;53.82;101309.25;5056923;28;45491;-77
2022/03/04 14:47:25;;;;;;;;;53.75;41.00;;;;;14.64;53.40;101334.72;5058376;28;46120;-69
2022/03/04 14:49:51;;;;;;;;;52.75;38.25;;;;;14.63;54.09;101328.53;5056515;28;45486;-74
2022/03/04 14:52:17;;;;;;;;;50.00;40.00;;;;;14.69;55.56;101343.47;5053025;28;45308;-72
2022/03/04 14:54:44;;;;;;;;;47.50;36.50;;;;;14.55;55.69;101308.41;5055049;28;45464;-72
2022/03/04 14:57:11;;;;;;;;;50.25;38.50;;;;;14.76;55.39;101331.09;5057815;28;46213;-73
2022/03/04 14:59:40;;;;;;;;;49.75;38.00;;;;;14.68;54.94;101309.19;5058995;28;45459;-77
2022/03/04 15:02:08;;;;;;;;;49.00;39.25;;;;;14.81;55.85;101321.44;5054792;28;45323;-75
2022/03/04 15:04:37;;;;;;;;;42.75;37.25;;;;;14.96;55.28;101341.53;5054457;28;45558;-74
2022/03/04 15:07:08;;;;;;;;;38.75;34.75;;;;;15.02;54.88;101336.25;5056273;28;45884;-78
2022/03/04 15:09:38;;;;;;;;;48.25;37.50;;;;;15.07;55.35;101331.81;5061104;28;45482;-74
2022/03/04 15:12:09;;;;;;;;;49.00;36.75;;;;;15.11;53.48;101333.50;5060752;28;45557;-76
2022/03/04 15:14:35;;;;;;;;;38.00;33.25;;;;;15.06;54.53;101316.84;5060642;28;45390;-78
2022/03/04 15:17:04;;;;;;;;;42.50;35.00;;;;;14.94;53.74;101298.47;5059910;28;45488;-71
2022/03/04 15:19:35;;;;;;;;;49.00;37.25;;;;;15.12;53.79;101322.09;5038747;28;45812;-76
2022/03/04 15:22:03;;;;;;;;;39.75;33.00;;;;;15.20;54.12;101340.50;5058552;28;45380;-74
2022/03/04 15:24:29;;;;;;;;;40.00;35.75;;;;;15.07;54.80;101313.34;5058645;28;45484;-77
2022/03/04 15:26:56;;;;;;;;;46.25;38.25;;;;;15.27;54.33;101336.94;5055705;28;46145;-78
2022/03/04 15:29:22;;;;;;;;;44.00;36.00;;;;;14.89;54.32;101266.84;5056045;28;45512;-70
2022/03/04 15:31:49;;;;;;;;;39.25;35.00;;;;;15.26;53.74;101324.63;5055302;28;45345;-70
2022/03/04 15:34:18;;;;;;;;;40.50;33.25;;;;;15.26;53.84;101330.78;5056448;28;45782;-74
2022/03/04 15:36:44;;;;;;;;;39.00;33.50;;;;;15.39;53.76;101330.66;5041128;28;48019;-75
2022/03/04 15:39:10;;;;;;;;;41.75;35.25;;;;;15.41;54.17;101342.09;5055858;28;45769;-74
2022/03/04 15:41:36;;;;;;;;;38.00;33.25;;;;;15.28;53.49;101317.59;5055395;28;45499;-74
2022/03/04 15:44:03;;;;;;;;;43.50;35.25;;;;;15.40;53.48;101343.88;5055763;28;45393;-75
2022/03/04 15:46:29;;;;;;;;;45.00;35.25;;;;;14.72;53.21;101229.19;5038413;28;48041;-74
2022/03/04 15:48:55;;;;;;;;;40.00;35.00;;;;;15.36;53.73;101351.81;5060115;28;45409;-75
2022/03/04 15:51:20;;;;;;;;;29.50;27.25;;;;;15.33;53.82;101347.44;5040099;28;45361;-80
2022/03/04 15:53:49;;;;;;;;;33.75;29.50;;;;;15.02;54.87;101292.28;5055907;28;45485;-78
2022/03/04 15:56:16;;;;;;;;;35.25;26.75;;;;;15.35;54.36;101347.41;5054677;28;46668;-77
2022/03/04 15:58:41;;;;;;;;;32.75;25.75;;;;;15.35;54.63;101353.59;5038139;28;45548;-74
2022/03/04 16:01:07;;;;;;;;;30.25;22.75;;;;;15.26;54.73;101338.69;5059304;28;45622;-78
2022/03/04 16:03:33;;;;;;;;;34.75;24.50;;;;;15.19;53.66;101337.00;5061090;28;45525;-79
2022/03/04 16:05:59;;;;;;;;;30.00;24.00;;;;;15.27;54.18;101358.03;5060243;28;45562;-81
2022/03/04 16:08:25;;;;;;;;;24.50;20.25;;;;;14.73;54.25;101274.00;5062055;28;45933;-83
2022/03/04 16:10:51;;;;;;;;;25.00;22.75;;;;;15.13;54.67;101349.34;5044341;28;45656;-79
2022/03/04 16:13:20;;;;;;;;;29.25;21.25;;;;;14.89;54.28;101327.53;5058005;28;45390;-76
2022/03/04 16:15:46;;;;;;;;;31.50;24.75;;;;;15.00;55.15;101359.97;5039089;28;47127;-78
2022/03/04 16:18:13;;;;;;;;;27.00;24.50;;;;;14.88;55.35;101345.97;5066883;28;45292;-78
2022/03/04 16:20:42;;;;;;;;;30.00;24.25;;;;;14.56;55.15;101303.09;5055450;28;45347;-71
2022/03/04 16:23:12;;;;;;;;;24.75;22.00;;;;;14.55;55.40;101311.91;5055421;28;45459;-76
2022/03/04 16:25:39;;;;;;;;;24.75;23.00;;;;;14.51;55.27;101311.88;5057743;28;45307;-79
2022/03/04 16:28:04;;;;;;;;;27.25;23.75;;;;;14.23;55.54;101272.47;5066328;28;44884;-74
2022/03/04 16:30:31;;;;;;;;;27.75;22.75;;;;;14.58;55.77;101334.72;5062655;28;45754;-77
2022/03/04 16:32:58;;;;;;;;;29.00;24.25;;;;;14.56;56.06;101336.50;5060122;28;45478;-81
2022/03/04 16:35:26;;;;;;;;;27.50;23.50;;;;;14.56;56.21;101342.63;5059884;28;46386;-82
2022/03/04 16:37:52;;;;;;;;;24.75;22.00;;;;;14.21;56.25;101293.59;5059284;28;45510;-83
2022/03/04 16:40:17;;;;;;;;;24.00;21.25;;;;;14.17;59.07;101289.19;5055163;28;45401;-83
2022/03/04 16:42:43;;;;;;;;;24.50;23.00;;;;;14.44;56.96;101332.13;5057158;28;45717;-80
2022/03/04 16:45:12;;;;;;;;;31.00;25.50;;;;;14.47;56.44;101345.28;5056971;28;46300;-80
2022/03/04 16:47:52;;;;;;;;;31.25;28.75;;;;;14.35;56.86;101326.88;5040841;28;45469;-80
2022/03/04 16:50:17;;;;;;;;;31.75;24.00;;;;;14.19;57.28;101308.53;5056853;28;45431;-78
2022/03/04 16:52:43;;;;;;;;;30.75;27.25;;;;;14.35;56.65;101348.84;5047731;28;45842;-75
2022/03/04 16:55:09;;;;;;;;;31.75;28.75;;;;;13.93;56.93;101294.56;5054256;28;46597;-79
2022/03/04 16:57:35;;;;;;;;;31.50;26.75;;;;;13.97;56.94;101298.91;5055776;28;45488;-77
2022/03/04 17:00:02;;;;;;;;;31.25;28.75;;;;;14.24;57.04;101355.94;5055736;28;45802;-78
2022/03/04 17:02:30;;;;;;;;;32.75;25.00;;;;;14.11;57.15;101348.94;5049671;28;45527;-77
2022/03/04 17:04:56;;;;;;;;;36.50;30.00;;;;;14.15;57.68;101350.69;5050012;28;45734;-73
2022/03/04 17:07:23;;;;;;;;;33.50;29.00;;;;;13.88;57.12;101309.47;5051223;28;45875;-76
2022/03/04 17:09:48;;;;;;;;;26.75;25.50;;;;;13.75;57.58;101295.47;5050289;28;45394;-72
2022/03/04 17:12:15;;;;;;;;;39.25;29.00;;;;;14.08;57.39;101356.84;5053542;28;45505;-74
2022/03/04 17:14:43;;;;;;;;;41.75;33.00;;;;;13.72;57.52;101306.88;5053984;28;46494;-77
2022/03/04 17:17:09;;;;;;;;;36.25;31.00;;;;;13.69;57.45;101309.53;5053859;28;45490;-75
2022/03/04 17:19:45;;;;;;;;;32.75;28.50;;;;;13.90;57.19;101369.16;5051730;28;45498;-79
2022/03/04 17:22:15;;;;;;;;;42.75;33.00;;;;;13.89;57.56;101353.38;5054251;28;45399;-78
2022/03/04 17:24:44;;;;;;;;;42.25;33.00;;;;;13.94;57.55;101373.53;5053675;28;45860;-77
2022/03/04 17:27:12;;;;;;;;;46.75;35.50;;;;;13.84;57.33;101360.41;5047536;28;45733;-78
2022/03/04 17:29:41;;;;;;;;;43.25;31.75;;;;;13.88;57.40;101383.19;5054605;28;45438;-79
2022/03/04 17:32:07;;;;;;;;;41.50;32.50;;;;;13.77;57.45;101378.84;5050408;28;45522;-79
2022/03/04 17:34:42;;;;;;;;;37.75;31.00;;;;;13.82;57.51;101388.50;5042073;28;46159;-79
2022/03/04 17:37:08;;;;;;;;;32.50;29.00;;;;;12.98;57.73;101245.53;5039637;28;45458;-79
2022/03/04 17:39:34;;;;;;;;;32.00;29.00;;;;;13.52;57.51;101341.13;5046582;28;45244;-79
2022/03/04 17:42:07;;;;;;;;;43.00;33.75;;;;;13.65;57.75;101373.59;5054078;28;45936;-80
2022/03/04 17:44:34;;;;;;;;;38.75;31.75;;;;;13.71;57.83;101392.00;5053582;28;46709;-73
2022/03/04 17:47:02;;;;;;;;;38.50;32.00;;;;;13.70;57.68;101392.00;5054451;28;45466;-76
2022/03/04 17:49:28;;;;;;;;;38.00;34.00;;;;;13.26;57.72;101320.03;5057536;28;45859;-76
2022/03/04 17:51:58;;;;;;;;;34.00;29.50;;;;;13.32;57.64;101335.00;5058338;28;45403;-78
2022/03/04 17:54:24;;;;;;;;;44.75;32.00;;;;;13.63;57.49;101399.03;5050189;28;45397;-76
2022/03/04 17:56:49;;;;;;;;;41.75;32.75;;;;;13.61;57.88;101394.66;5059238;28;45749;-80
2022/03/04 17:59:15;;;;;;;;;43.00;30.75;;;;;13.48;58.11;101381.50;5063602;28;45228;-71
2022/03/04 18:01:41;;;;;;;;;34.50;30.25;;;;;13.57;57.86;101394.66;5059956;28;45286;-72
2022/03/04 18:04:07;;;;;;;;;37.75;31.75;;;;;13.28;57.64;101354.28;5054420;28;46147;-74
2022/03/04 18:06:33;;;;;;;;;43.75;32.50;;;;;12.84;57.74;101289.34;5054750;28;45299;-70
2022/03/04 18:09:00;;;;;;;;;31.75;26.50;;;;;13.50;57.82;101400.78;5053725;28;45252;-68
2022/03/04 18:11:26;;;;;;;;;41.25;33.25;;;;;12.21;57.64;101197.22;5054941;28;45715;-77
2022/03/04 18:13:52;;;;;;;;;36.00;31.75;;;;;13.12;58.31;101354.25;5055003;28;45410;-73
2022/03/04 18:16:19;;;;;;;;;34.50;32.00;;;;;13.44;58.10;101420.97;5057159;28;45525;-78
2022/03/04 18:18:45;;;;;;;;;30.75;28.25;;;;;13.38;57.88;101402.50;5053969;28;45378;-79
2022/03/04 18:21:11;;;;;;;;;27.25;23.50;;;;;13.41;57.39;101424.47;5035387;28;45633;-80
2022/03/04 18:23:37;;;;;;;;;33.50;26.25;;;;;13.10;57.63;101371.78;5053297;28;45575;-78
2022/03/04 18:26:03;;;;;;;;;35.75;29.50;;;;;13.00;57.77;101354.19;5054259;28;45590;-79
2022/03/04 18:28:29;;;;;;;;;27.00;25.25;;;;;13.31;57.80;101405.16;5035275;28;45907;-79
2022/03/04 18:30:56;;;;;;;;;29.25;24.75;;;;;13.36;57.86;101424.47;5058209;28;46223;-77
2022/03/04 18:33:21;;;;;;;;;31.25;26.75;;;;;13.07;57.98;101377.00;5057107;28;45332;-79
2022/03/04 18:35:47;;;;;;;;;33.50;25.25;;;;;13.23;57.78;101408.59;5057344;28;45523;-76
2022/03/04 18:40:56;;;;;;;;;26.00;26.00;;;;;13.32;57.95;101435.84;5044136;28;45603;-76
2022/03/04 18:43:22;;;;;;;;;29.25;25.75;;;;;13.30;57.90;101437.59;5046329;28;45434;-79
2022/03/04 18:45:52;;;;;;;;;30.00;23.00;;;;;13.30;57.49;101434.09;5055673;28;45490;-78
2022/03/04 18:48:17;;;;;;;;;27.00;23.75;;;;;13.28;57.78;101434.06;5060860;28;45395;-73
2022/03/04 18:50:44;;;;;;;;;28.25;21.50;;;;;13.28;58.03;101441.09;5061134;28;45490;-73
2022/03/04 18:53:10;;;;;;;;;28.25;21.50;;;;;13.27;57.99;101436.69;5042957;28;48011;-78
2022/03/04 18:55:36;;;;;;;;;29.25;22.00;;;;;12.50;57.63;101305.00;5060929;28;46038;-78
2022/03/04 18:58:02;;;;;;;;;28.75;26.50;;;;;12.85;57.86;101370.81;5058969;28;45351;-78
2022/03/04 19:00:28;;;;;;;;;30.00;24.00;;;;;13.02;57.74;101407.66;5055566;28;45608;-74
2022/03/04 19:02:55;;;;;;;;;20.25;16.75;;;;;13.00;58.00;101406.78;5039785;28;47953;-75
2022/03/04 19:05:23;;;;;;;;;21.25;19.00;;;;;13.02;57.54;101405.03;5060151;28;45460;-77
2022/03/04 19:07:50;;;;;;;;;19.75;17.75;;;;;13.17;57.67;101435.78;5056707;28;45594;-76
2022/03/04 19:10:17;;;;;;;;;22.25;17.75;;;;;13.24;57.78;101447.19;5037545;28;45339;-72
2022/03/04 19:12:44;;;;;;;;;28.00;19.00;;;;;13.16;57.50;101440.16;5055848;28;46131;-71
2022/03/04 19:15:13;;;;;;;;;21.00;19.25;;;;;13.22;57.67;101449.81;5057233;28;45618;-75
2022/03/04 19:17:40;;;;;;;;;25.50;22.00;;;;;13.22;57.24;101446.31;5060388;28;45576;-75
2022/03/04 19:20:13;;;;;;;;;24.25;16.50;;;;;13.03;57.77;101419.97;5060264;28;45763;-68
2022/03/04 19:22:42;;;;;;;;;23.50;19.75;;;;;12.83;57.38;101393.59;5059695;28;46580;-76
2022/03/04 19:25:09;;;;;;;;;25.25;19.50;;;;;13.08;56.94;101435.75;5060827;28;45398;-78
2022/03/04 19:27:36;;;;;;;;;20.25;17.75;;;;;13.07;57.09;101436.63;5062468;28;45379;-75
2022/03/04 19:30:04;;;;;;;;;18.75;18.00;;;;;13.15;57.51;101445.44;5062234;28;45251;-76
2022/03/04 19:32:30;;;;;;;;;21.50;18.00;;;;;13.12;57.18;101451.56;5043296;28;46423;-74
2022/03/04 19:34:57;;;;;;;;;18.75;16.50;;;;;12.87;57.03;101410.28;5050001;28;45596;-80
2022/03/04 19:37:23;;;;;;;;;19.25;16.50;;;;;12.52;57.67;101355.81;5057306;28;45957;-72
2022/03/04 19:39:51;;;;;;;;;20.50;15.50;;;;;12.88;57.47;101410.28;5059369;28;45597;-70
2022/03/04 19:42:23;;;;;;;;;22.50;16.25;;;;;12.92;58.92;101419.03;5056346;28;45418;-85
2022/03/04 19:44:49;;;;;;;;;14.75;12.25;;;;;12.89;57.50;101416.41;5037940;28;45422;-75
2022/03/04 19:47:16;;;;;;;;;17.75;14.00;;;;;13.08;57.55;101455.03;5048288;28;45417;-77
2022/03/04 19:49:43;;;;;;;;;14.75;14.75;;;;;13.07;57.45;101453.25;5052358;28;45343;-80
2022/03/04 19:52:09;;;;;;;;;17.00;15.25;;;;;12.91;57.64;101433.94;5064701;28;45498;-76
2022/03/04 19:54:35;;;;;;;;;17.75;15.75;;;;;13.05;57.48;101451.50;5064809;28;45985;-78
2022/03/04 19:57:01;;;;;;;;;13.75;10.75;;;;;13.04;57.21;101461.16;5067470;28;45259;-77
2022/03/04 19:59:29;;;;;;;;;12.75;10.25;;;;;13.03;57.30;101459.41;5066402;28;45359;-73
2022/03/04 20:01:56;;;;;;;;;12.25;12.25;;;;;12.82;56.96;101428.66;5043879;28;46905;-77
2022/03/04 20:04:24;;;;;;;;;14.00;12.00;;;;;13.01;57.17;101460.28;5031589;28;45544;-73
2022/03/04 20:06:50;;;;;;;;;16.50;14.50;;;;;13.01;57.11;101468.16;5050290;28;46177;-76
2022/03/04 20:09:16;;;;;;;;;16.00;14.25;;;;;12.72;57.11;101413.72;5053265;28;45593;-72
2022/03/04 20:11:43;;;;;;;;;20.75;18.00;;;;;12.76;56.89;101420.72;5052050;28;45877;-75
2022/03/04 20:14:10;;;;;;;;;20.75;15.00;;;;;12.85;57.18;101439.19;5058005;28;45549;-75
2022/03/04 20:16:35;;;;;;;;;23.50;18.00;;;;;12.93;56.99;101461.13;5062869;28;45485;-74
2022/03/04 20:19:01;;;;;;;;;23.00;18.00;;;;;12.78;57.47;101437.41;5036890;28;45489;-77
2022/03/04 20:21:27;;;;;;;;;29.50;21.75;;;;;12.91;57.07;101462.88;5053210;28;46340;-77
2022/03/04 20:23:54;;;;;;;;;26.00;21.75;;;;;12.91;57.32;101460.25;5055263;28;45718;-76
2022/03/04 20:26:20;;;;;;;;;30.50;23.50;;;;;12.88;57.60;101452.34;5054703;28;45476;-77
2022/03/04 20:28:46;;;;;;;;;32.25;26.00;;;;;12.52;57.32;101397.84;5031547;28;45473;-76
2022/03/04 20:31:13;;;;;;;;;28.75;25.25;;;;;12.40;57.36;101371.53;5054677;28;46158;-75
2022/03/04 20:33:42;;;;;;;;;37.25;30.25;;;;;12.39;56.95;101381.16;5052441;28;45637;-73
2022/03/04 20:36:09;;;;;;;;;36.50;29.00;;;;;12.86;57.25;101461.97;5053791;28;45699;-79
2022/03/04 20:38:37;;;;;;;;;26.50;24.25;;;;;12.38;57.77;101396.91;5057282;28;45469;-76
2022/03/04 20:41:03;;;;;;;;;25.00;21.75;;;;;12.11;57.71;101339.88;5065073;28;47103;-74
2022/03/04 20:43:29;;;;;;;;;34.75;27.75;;;;;12.82;57.23;101475.09;5034404;28;45959;-75
2022/03/04 20:45:55;;;;;;;;;32.75;29.25;;;;;12.82;57.63;101464.59;5034767;28;45557;-71
2022/03/04 20:48:22;;;;;;;;;36.25;30.00;;;;;12.80;57.73;101472.47;5032980;28;45808;-75
2022/03/04 20:50:48;;;;;;;;;31.00;26.00;;;;;12.66;57.70;101440.84;5035805;28;47101;-73
2022/03/04 20:53:15;;;;;;;;;33.75;28.25;;;;;12.75;57.78;101458.41;5030017;28;45546;-71
2022/03/04 20:55:41;;;;;;;;;36.50;32.50;;;;;12.75;57.70;101449.66;5052876;28;45568;-74
2022/03/04 20:58:07;;;;;;;;;41.50;28.25;;;;;12.78;57.50;101458.41;5048156;28;45764;-76
2022/03/04 21:00:34;;;;;;;;;38.75;30.75;;;;;12.79;57.47;101464.56;5051689;28;46273;-73
2022/03/04 21:03:01;;;;;;;;;37.00;31.75;;;;;12.40;57.24;101395.19;5053477;28;45524;-74
2022/03/04 21:05:27;;;;;;;;;38.25;32.00;;;;;12.58;57.35;101426.81;5050109;28;45472;-77
2022/03/04 21:07:53;;;;;;;;;45.50;35.75;;;;;12.71;57.54;101459.28;5049949;28;45375;-76
2022/03/04 21:10:19;;;;;;;;;46.25;35.25;;;;;12.50;57.62;101421.53;5049305;28;45683;-73
2022/03/04 21:12:46;;;;;;;;;41.00;33.25;;;;;12.15;57.73;101366.16;5049910;28;46007;-73
2022/03/04 21:15:12;;;;;;;;;42.25;35.25;;;;;12.69;58.14;101451.41;5049724;28;45614;-77
2022/03/04 21:17:38;;;;;;;;;47.00;35.00;;;;;12.49;58.03;101418.88;5043458;28;46245;-78
2022/03/04 21:20:05;;;;;;;;;42.75;35.75;;;;;12.70;57.74;101461.03;5049294;28;46086;-73
2022/03/04 21:22:30;;;;;;;;;39.00;34.25;;;;;12.34;57.83;101397.75;5041596;28;45805;-70
2022/03/04 21:24:56;;;;;;;;;39.25;32.75;;;;;11.73;57.62;101298.50;5046343;28;45532;-71
2022/03/04 21:27:22;;;;;;;;;38.00;33.25;;;;;12.66;58.06;101458.38;5049653;28;45363;-74
2022/03/04 21:29:48;;;;;;;;;36.25;30.00;;;;;12.64;58.13;101455.72;5050563;28;45535;-75
2022/03/04 21:32:14;;;;;;;;;34.50;33.50;;;;;12.48;58.14;101432.88;5033548;28;45454;-72
2022/03/04 21:34:40;;;;;;;;;36.75;30.25;;;;;12.62;58.35;101457.47;5049026;28;45557;-75
2022/03/04 21:37:05;;;;;;;;;42.00;34.75;;;;;12.57;58.10;101455.69;5051088;28;45894;-72
2022/03/04 21:39:32;;;;;;;;;42.75;34.50;;;;;12.59;58.10;101470.59;5052679;28;46272;-76
2022/03/04 21:41:59;;;;;;;;;38.00;33.00;;;;;12.57;58.45;101453.06;5053449;28;45533;-76